sensor_id;sensor_type;location;lat;lon;timestamp;P1;durP1;ratioP1;P2;durP2;ratioP2
70342;SDS011;57767;42.068;24.752;2023-06-10T00:00:52;5.35;;;3.65;;
70342;SDS011;57767;42.068;24.752;2023-06-10T00:01:54;4.68;;;3.33;;
70342;SDS011;57767;42.068;24.752;2023-06-10T00:03:01;4.72;;;3.65;;
70342;SDS011;57767;42.068;24.752;2023-06-10T00:04:03;4.05;;;3.60;;
70342;SDS011;57767;42.068;24.752;2023-06-10T00:05:06;4.40;;;4.00;;
70342;SDS011;57767;42.068;24.752;2023-06-10T00:06:09;4.07;;;3.50;;
70342;SDS011;57767;42.068;24.752;2023-06-10T00:07:11;5.90;;;4.03;;
70342;SDS011;57767;42.068;24.752;2023-06-10T00:08:13;4.88;;;3.90;;
70342;SDS011;57767;42.068;24.752;2023-06-10T00:09:17;4.75;;;4.20;;
70342;SDS011;57767;42.068;24.752;2023-06-10T00:10:19;5.50;;;3.97;;
70342;SDS011;57767;42.068;24.752;2023-06-10T00:11:21;8.93;;;4.13;;
70342;SDS011;57767;42.068;24.752;2023-06-10T00:12:23;4.32;;;3.83;;
70342;SDS011;57767;42.068;24.752;2023-06-10T00:13:25;6.65;;;4.63;;
70342;SDS011;57767;42.068;24.752;2023-06-10T00:14:27;6.30;;;5.05;;
70342;SDS011;57767;42.068;24.752;2023-06-10T00:15:29;7.95;;;4.38;;
70342;SDS011;57767;42.068;24.752;2023-06-10T00:16:31;6.20;;;4.72;;
70342;SDS011;57767;42.068;24.752;2023-06-10T00:17:33;4.47;;;4.00;;
70342;SDS011;57767;42.068;24.752;2023-06-10T00:18:35;5.57;;;4.28;;
70342;SDS011;57767;42.068;24.752;2023-06-10T00:19:40;8.63;;;4.85;;
70342;SDS011;57767;42.068;24.752;2023-06-10T00:20:42;8.15;;;4.60;;
70342;SDS011;57767;42.068;24.752;2023-06-10T00:21:44;6.40;;;4.53;;
70342;SDS011;57767;42.068;24.752;2023-06-10T00:22:46;7.10;;;4.32;;
70342;SDS011;57767;42.068;24.752;2023-06-10T00:23:50;5.20;;;4.20;;
70342;SDS011;57767;42.068;24.752;2023-06-10T00:24:52;5.88;;;4.13;;
70342;SDS011;57767;42.068;24.752;2023-06-10T00:25:53;5.10;;;4.60;;
70342;SDS011;57767;42.068;24.752;2023-06-10T00:26:55;11.07;;;4.60;;
70342;SDS011;57767;42.068;24.752;2023-06-10T00:27:57;5.78;;;4.50;;
70342;SDS011;57767;42.068;24.752;2023-06-10T00:28:59;5.50;;;4.15;;
70342;SDS011;57767;42.068;24.752;2023-06-10T00:30:02;6.43;;;4.40;;
70342;SDS011;57767;42.068;24.752;2023-06-10T00:31:05;5.07;;;4.32;;
70342;SDS011;57767;42.068;24.752;2023-06-10T00:32:07;5.53;;;4.18;;
70342;SDS011;57767;42.068;24.752;2023-06-10T00:33:09;5.60;;;4.57;;
70342;SDS011;57767;42.068;24.752;2023-06-10T00:34:11;5.38;;;3.90;;
70342;SDS011;57767;42.068;24.752;2023-06-10T00:35:13;11.43;;;4.07;;
70342;SDS011;57767;42.068;24.752;2023-06-10T00:36:15;7.28;;;3.90;;
70342;SDS011;57767;42.068;24.752;2023-06-10T00:37:17;5.82;;;3.90;;
70342;SDS011;57767;42.068;24.752;2023-06-10T00:38:19;8.05;;;4.47;;
70342;SDS011;57767;42.068;24.752;2023-06-10T00:39:21;5.45;;;3.83;;
70342;SDS011;57767;42.068;24.752;2023-06-10T00:40:22;5.75;;;4.15;;
70342;SDS011;57767;42.068;24.752;2023-06-10T00:41:24;4.30;;;3.90;;
70342;SDS011;57767;42.068;24.752;2023-06-10T00:42:27;7.25;;;4.40;;
70342;SDS011;57767;42.068;24.752;2023-06-10T00:43:29;5.50;;;4.07;;
70342;SDS011;57767;42.068;24.752;2023-06-10T00:44:31;5.70;;;4.55;;
70342;SDS011;57767;42.068;24.752;2023-06-10T00:45:33;6.53;;;4.20;;
70342;SDS011;57767;42.068;24.752;2023-06-10T00:46:35;16.58;;;4.55;;
70342;SDS011;57767;42.068;24.752;2023-06-10T00:47:38;9.10;;;4.50;;
70342;SDS011;57767;42.068;24.752;2023-06-10T00:48:41;4.85;;;3.88;;
70342;SDS011;57767;42.068;24.752;2023-06-10T00:49:45;6.10;;;4.10;;
70342;SDS011;57767;42.068;24.752;2023-06-10T00:50:47;4.63;;;4.10;;
70342;SDS011;57767;42.068;24.752;2023-06-10T00:51:50;6.68;;;4.47;;
70342;SDS011;57767;42.068;24.752;2023-06-10T00:52:54;5.07;;;4.20;;
70342;SDS011;57767;42.068;24.752;2023-06-10T00:53:57;4.45;;;4.05;;
70342;SDS011;57767;42.068;24.752;2023-06-10T00:54:59;6.28;;;4.35;;
70342;SDS011;57767;42.068;24.752;2023-06-10T00:56:01;5.75;;;4.50;;
70342;SDS011;57767;42.068;24.752;2023-06-10T00:57:02;5.43;;;4.47;;
70342;SDS011;57767;42.068;24.752;2023-06-10T00:58:05;5.65;;;4.38;;
70342;SDS011;57767;42.068;24.752;2023-06-10T00:59:07;4.68;;;4.25;;
70342;SDS011;57767;42.068;24.752;2023-06-10T01:00:09;5.07;;;4.65;;
70342;SDS011;57767;42.068;24.752;2023-06-10T01:01:12;6.30;;;4.18;;
70342;SDS011;57767;42.068;24.752;2023-06-10T01:02:14;4.93;;;4.05;;
70342;SDS011;57767;42.068;24.752;2023-06-10T01:03:17;5.28;;;4.10;;
70342;SDS011;57767;42.068;24.752;2023-06-10T01:04:20;6.15;;;4.55;;
70342;SDS011;57767;42.068;24.752;2023-06-10T01:05:23;5.85;;;3.97;;
70342;SDS011;57767;42.068;24.752;2023-06-10T01:07:28;6.97;;;4.28;;
70342;SDS011;57767;42.068;24.752;2023-06-10T01:08:14;5.65;;;3.90;;
70342;SDS011;57767;42.068;24.752;2023-06-10T01:12:12;4.93;;;4.20;;
70342;SDS011;57767;42.068;24.752;2023-06-10T01:13:20;6.25;;;4.22;;
70342;SDS011;57767;42.068;24.752;2023-06-10T01:14:25;5.10;;;3.92;;
70342;SDS011;57767;42.068;24.752;2023-06-10T01:15:31;5.13;;;4.45;;
70342;SDS011;57767;42.068;24.752;2023-06-10T01:16:33;4.30;;;3.90;;
70342;SDS011;57767;42.068;24.752;2023-06-10T01:18:55;5.03;;;4.30;;
70342;SDS011;57767;42.068;24.752;2023-06-10T01:19:57;4.97;;;4.13;;
70342;SDS011;57767;42.068;24.752;2023-06-10T01:21:00;4.82;;;3.75;;
70342;SDS011;57767;42.068;24.752;2023-06-10T01:22:02;5.18;;;4.00;;
70342;SDS011;57767;42.068;24.752;2023-06-10T01:23:04;4.50;;;4.10;;
70342;SDS011;57767;42.068;24.752;2023-06-10T01:24:07;4.45;;;3.67;;
70342;SDS011;57767;42.068;24.752;2023-06-10T01:25:09;5.07;;;4.25;;
70342;SDS011;57767;42.068;24.752;2023-06-10T01:26:13;6.00;;;4.20;;
70342;SDS011;57767;42.068;24.752;2023-06-10T01:27:16;7.30;;;4.50;;
70342;SDS011;57767;42.068;24.752;2023-06-10T01:29:37;4.82;;;4.05;;
70342;SDS011;57767;42.068;24.752;2023-06-10T01:32:21;5.38;;;3.88;;
70342;SDS011;57767;42.068;24.752;2023-06-10T01:33:30;3.90;;;3.50;;
70342;SDS011;57767;42.068;24.752;2023-06-10T01:34:35;6.97;;;3.95;;
70342;SDS011;57767;42.068;24.752;2023-06-10T01:35:38;6.47;;;4.03;;
70342;SDS011;57767;42.068;24.752;2023-06-10T01:36:41;6.60;;;3.70;;
70342;SDS011;57767;42.068;24.752;2023-06-10T01:37:47;5.55;;;3.78;;
70342;SDS011;57767;42.068;24.752;2023-06-10T01:38:50;4.53;;;4.13;;
70342;SDS011;57767;42.068;24.752;2023-06-10T01:39:56;6.60;;;4.20;;
70342;SDS011;57767;42.068;24.752;2023-06-10T01:40:59;4.38;;;3.70;;
70342;SDS011;57767;42.068;24.752;2023-06-10T01:42:02;6.15;;;4.25;;
70342;SDS011;57767;42.068;24.752;2023-06-10T01:43:06;7.50;;;4.10;;
70342;SDS011;57767;42.068;24.752;2023-06-10T01:44:08;7.00;;;4.28;;
70342;SDS011;57767;42.068;24.752;2023-06-10T01:45:10;5.38;;;4.15;;
70342;SDS011;57767;42.068;24.752;2023-06-10T01:46:12;9.05;;;4.65;;
70342;SDS011;57767;42.068;24.752;2023-06-10T01:47:15;7.78;;;4.50;;
70342;SDS011;57767;42.068;24.752;2023-06-10T01:48:16;7.47;;;4.88;;
70342;SDS011;57767;42.068;24.752;2023-06-10T01:49:18;9.95;;;5.28;;
70342;SDS011;57767;42.068;24.752;2023-06-10T01:50:20;6.75;;;4.70;;
70342;SDS011;57767;42.068;24.752;2023-06-10T01:51:22;8.02;;;5.15;;
70342;SDS011;57767;42.068;24.752;2023-06-10T01:52:24;9.48;;;5.32;;
70342;SDS011;57767;42.068;24.752;2023-06-10T01:53:26;5.72;;;4.82;;
70342;SDS011;57767;42.068;24.752;2023-06-10T01:54:28;8.50;;;5.43;;
70342;SDS011;57767;42.068;24.752;2023-06-10T01:55:30;11.15;;;5.22;;
70342;SDS011;57767;42.068;24.752;2023-06-10T01:56:32;6.05;;;4.75;;
70342;SDS011;57767;42.068;24.752;2023-06-10T01:57:34;6.05;;;5.25;;
70342;SDS011;57767;42.068;24.752;2023-06-10T01:58:36;7.28;;;5.35;;
70342;SDS011;57767;42.068;24.752;2023-06-10T01:59:38;6.63;;;5.55;;
70342;SDS011;57767;42.068;24.752;2023-06-10T02:00:40;10.05;;;5.68;;
70342;SDS011;57767;42.068;24.752;2023-06-10T02:01:42;6.43;;;5.68;;
70342;SDS011;57767;42.068;24.752;2023-06-10T02:02:44;6.38;;;5.30;;
70342;SDS011;57767;42.068;24.752;2023-06-10T02:03:46;7.22;;;5.75;;
70342;SDS011;57767;42.068;24.752;2023-06-10T02:04:47;6.82;;;5.57;;
70342;SDS011;57767;42.068;24.752;2023-06-10T02:05:49;8.15;;;5.40;;
70342;SDS011;57767;42.068;24.752;2023-06-10T02:06:51;8.20;;;5.05;;
70342;SDS011;57767;42.068;24.752;2023-06-10T02:07:54;6.22;;;5.60;;
70342;SDS011;57767;42.068;24.752;2023-06-10T02:08:56;8.43;;;5.07;;
70342;SDS011;57767;42.068;24.752;2023-06-10T02:09:58;9.95;;;5.43;;
70342;SDS011;57767;42.068;24.752;2023-06-10T02:11:00;7.80;;;5.55;;
70342;SDS011;57767;42.068;24.752;2023-06-10T02:12:02;7.95;;;4.93;;
70342;SDS011;57767;42.068;24.752;2023-06-10T02:13:04;7.57;;;5.10;;
70342;SDS011;57767;42.068;24.752;2023-06-10T02:14:06;5.32;;;4.82;;
70342;SDS011;57767;42.068;24.752;2023-06-10T02:15:08;6.57;;;5.25;;
70342;SDS011;57767;42.068;24.752;2023-06-10T02:16:10;8.27;;;5.63;;
70342;SDS011;57767;42.068;24.752;2023-06-10T02:17:13;7.38;;;5.30;;
70342;SDS011;57767;42.068;24.752;2023-06-10T02:18:16;7.45;;;5.43;;
70342;SDS011;57767;42.068;24.752;2023-06-10T02:19:17;6.63;;;5.20;;
70342;SDS011;57767;42.068;24.752;2023-06-10T02:20:22;7.60;;;6.30;;
70342;SDS011;57767;42.068;24.752;2023-06-10T02:21:24;5.60;;;4.68;;
70342;SDS011;57767;42.068;24.752;2023-06-10T02:22:26;7.22;;;4.88;;
70342;SDS011;57767;42.068;24.752;2023-06-10T02:23:28;5.63;;;4.80;;
70342;SDS011;57767;42.068;24.752;2023-06-10T02:24:30;5.28;;;4.65;;
70342;SDS011;57767;42.068;24.752;2023-06-10T02:25:31;6.15;;;4.97;;
70342;SDS011;57767;42.068;24.752;2023-06-10T02:26:33;7.80;;;5.00;;
70342;SDS011;57767;42.068;24.752;2023-06-10T02:27:35;6.43;;;4.50;;
70342;SDS011;57767;42.068;24.752;2023-06-10T02:28:37;5.85;;;5.20;;
70342;SDS011;57767;42.068;24.752;2023-06-10T02:29:38;5.70;;;5.20;;
70342;SDS011;57767;42.068;24.752;2023-06-10T02:30:40;5.70;;;4.85;;
70342;SDS011;57767;42.068;24.752;2023-06-10T02:31:43;8.82;;;4.80;;
70342;SDS011;57767;42.068;24.752;2023-06-10T02:32:44;4.80;;;4.20;;
70342;SDS011;57767;42.068;24.752;2023-06-10T02:33:49;7.95;;;4.38;;
70342;SDS011;57767;42.068;24.752;2023-06-10T02:34:51;5.47;;;4.72;;
70342;SDS011;57767;42.068;24.752;2023-06-10T02:35:53;5.00;;;4.40;;
70342;SDS011;57767;42.068;24.752;2023-06-10T02:36:56;5.72;;;4.97;;
70342;SDS011;57767;42.068;24.752;2023-06-10T02:37:58;7.90;;;5.00;;
70342;SDS011;57767;42.068;24.752;2023-06-10T02:39:00;6.70;;;4.80;;
70342;SDS011;57767;42.068;24.752;2023-06-10T02:40:02;6.38;;;4.75;;
70342;SDS011;57767;42.068;24.752;2023-06-10T02:41:04;6.20;;;5.30;;
70342;SDS011;57767;42.068;24.752;2023-06-10T02:42:06;8.10;;;4.45;;
70342;SDS011;57767;42.068;24.752;2023-06-10T02:43:08;5.85;;;4.80;;
70342;SDS011;57767;42.068;24.752;2023-06-10T02:44:10;5.00;;;4.50;;
70342;SDS011;57767;42.068;24.752;2023-06-10T02:45:12;4.95;;;4.15;;
70342;SDS011;57767;42.068;24.752;2023-06-10T02:46:14;6.38;;;4.38;;
70342;SDS011;57767;42.068;24.752;2023-06-10T02:47:16;7.22;;;4.55;;
70342;SDS011;57767;42.068;24.752;2023-06-10T02:48:18;12.88;;;4.50;;
70342;SDS011;57767;42.068;24.752;2023-06-10T02:49:20;9.07;;;4.60;;
70342;SDS011;57767;42.068;24.752;2023-06-10T02:50:21;8.80;;;4.70;;
70342;SDS011;57767;42.068;24.752;2023-06-10T02:51:23;9.15;;;4.63;;
70342;SDS011;57767;42.068;24.752;2023-06-10T02:52:25;8.30;;;4.57;;
70342;SDS011;57767;42.068;24.752;2023-06-10T02:53:27;7.15;;;4.80;;
70342;SDS011;57767;42.068;24.752;2023-06-10T02:54:28;6.75;;;4.30;;
70342;SDS011;57767;42.068;24.752;2023-06-10T02:55:30;8.98;;;4.43;;
70342;SDS011;57767;42.068;24.752;2023-06-10T02:56:33;11.23;;;4.38;;
70342;SDS011;57767;42.068;24.752;2023-06-10T02:57:36;5.43;;;4.70;;
70342;SDS011;57767;42.068;24.752;2023-06-10T02:58:38;6.88;;;4.70;;
70342;SDS011;57767;42.068;24.752;2023-06-10T02:59:39;7.45;;;5.07;;
70342;SDS011;57767;42.068;24.752;2023-06-10T03:00:42;10.90;;;4.93;;
70342;SDS011;57767;42.068;24.752;2023-06-10T03:01:45;6.75;;;4.93;;
70342;SDS011;57767;42.068;24.752;2023-06-10T03:02:48;7.88;;;5.03;;
70342;SDS011;57767;42.068;24.752;2023-06-10T03:03:50;6.55;;;5.15;;
70342;SDS011;57767;42.068;24.752;2023-06-10T03:04:52;9.52;;;6.03;;
70342;SDS011;57767;42.068;24.752;2023-06-10T03:05:54;7.63;;;5.35;;
70342;SDS011;57767;42.068;24.752;2023-06-10T03:06:58;7.45;;;6.18;;
70342;SDS011;57767;42.068;24.752;2023-06-10T03:08:01;7.75;;;6.03;;
70342;SDS011;57767;42.068;24.752;2023-06-10T03:09:03;7.60;;;6.10;;
70342;SDS011;57767;42.068;24.752;2023-06-10T03:10:11;9.95;;;6.03;;
70342;SDS011;57767;42.068;24.752;2023-06-10T03:11:13;12.10;;;6.45;;
70342;SDS011;57767;42.068;24.752;2023-06-10T03:12:15;6.53;;;5.80;;
70342;SDS011;57767;42.068;24.752;2023-06-10T03:13:17;10.40;;;6.40;;
70342;SDS011;57767;42.068;24.752;2023-06-10T03:14:19;12.60;;;6.60;;
70342;SDS011;57767;42.068;24.752;2023-06-10T03:15:20;7.60;;;6.38;;
70342;SDS011;57767;42.068;24.752;2023-06-10T03:16:23;9.82;;;6.38;;
70342;SDS011;57767;42.068;24.752;2023-06-10T03:17:26;9.10;;;6.13;;
70342;SDS011;57767;42.068;24.752;2023-06-10T03:18:28;10.75;;;5.65;;
70342;SDS011;57767;42.068;24.752;2023-06-10T03:19:30;8.65;;;5.70;;
70342;SDS011;57767;42.068;24.752;2023-06-10T03:20:32;11.88;;;5.10;;
70342;SDS011;57767;42.068;24.752;2023-06-10T03:21:38;8.10;;;5.80;;
70342;SDS011;57767;42.068;24.752;2023-06-10T03:22:40;7.60;;;5.22;;
70342;SDS011;57767;42.068;24.752;2023-06-10T03:23:42;8.88;;;5.13;;
70342;SDS011;57767;42.068;24.752;2023-06-10T03:24:44;6.38;;;5.22;;
70342;SDS011;57767;42.068;24.752;2023-06-10T03:25:47;7.68;;;5.80;;
70342;SDS011;57767;42.068;24.752;2023-06-10T03:26:49;10.13;;;5.70;;
70342;SDS011;57767;42.068;24.752;2023-06-10T03:27:51;9.43;;;6.18;;
70342;SDS011;57767;42.068;24.752;2023-06-10T03:28:53;8.73;;;6.00;;
70342;SDS011;57767;42.068;24.752;2023-06-10T03:29:54;10.00;;;5.57;;
70342;SDS011;57767;42.068;24.752;2023-06-10T03:30:56;8.20;;;5.43;;
70342;SDS011;57767;42.068;24.752;2023-06-10T03:31:58;10.68;;;6.35;;
70342;SDS011;57767;42.068;24.752;2023-06-10T03:33:01;12.00;;;6.22;;
70342;SDS011;57767;42.068;24.752;2023-06-10T03:34:02;10.38;;;6.82;;
70342;SDS011;57767;42.068;24.752;2023-06-10T03:35:04;7.78;;;5.90;;
70342;SDS011;57767;42.068;24.752;2023-06-10T03:36:08;8.85;;;5.78;;
70342;SDS011;57767;42.068;24.752;2023-06-10T03:37:11;8.60;;;6.03;;
70342;SDS011;57767;42.068;24.752;2023-06-10T03:38:12;7.25;;;6.22;;
70342;SDS011;57767;42.068;24.752;2023-06-10T03:39:14;7.75;;;6.93;;
70342;SDS011;57767;42.068;24.752;2023-06-10T03:40:16;7.20;;;6.13;;
70342;SDS011;57767;42.068;24.752;2023-06-10T03:41:18;10.45;;;6.18;;
70342;SDS011;57767;42.068;24.752;2023-06-10T03:42:20;13.32;;;6.45;;
70342;SDS011;57767;42.068;24.752;2023-06-10T03:43:22;14.45;;;6.80;;
70342;SDS011;57767;42.068;24.752;2023-06-10T03:44:24;9.25;;;5.82;;
70342;SDS011;57767;42.068;24.752;2023-06-10T03:45:27;8.93;;;6.70;;
70342;SDS011;57767;42.068;24.752;2023-06-10T03:46:33;8.27;;;6.68;;
70342;SDS011;57767;42.068;24.752;2023-06-10T03:47:35;10.35;;;7.07;;
70342;SDS011;57767;42.068;24.752;2023-06-10T03:48:38;8.80;;;7.03;;
70342;SDS011;57767;42.068;24.752;2023-06-10T03:49:40;13.38;;;7.35;;
70342;SDS011;57767;42.068;24.752;2023-06-10T03:50:42;8.68;;;6.85;;
70342;SDS011;57767;42.068;24.752;2023-06-10T03:51:44;8.48;;;7.28;;
70342;SDS011;57767;42.068;24.752;2023-06-10T03:52:46;9.65;;;7.18;;
70342;SDS011;57767;42.068;24.752;2023-06-10T03:53:48;8.57;;;6.20;;
70342;SDS011;57767;42.068;24.752;2023-06-10T03:54:50;10.70;;;6.15;;
70342;SDS011;57767;42.068;24.752;2023-06-10T03:55:52;8.82;;;7.30;;
70342;SDS011;57767;42.068;24.752;2023-06-10T03:56:53;10.43;;;6.55;;
70342;SDS011;57767;42.068;24.752;2023-06-10T03:57:55;8.65;;;7.03;;
70342;SDS011;57767;42.068;24.752;2023-06-10T03:58:57;8.73;;;6.40;;
70342;SDS011;57767;42.068;24.752;2023-06-10T03:59:59;11.23;;;6.95;;
70342;SDS011;57767;42.068;24.752;2023-06-10T04:01:01;14.10;;;7.15;;
70342;SDS011;57767;42.068;24.752;2023-06-10T04:02:03;8.48;;;7.15;;
70342;SDS011;57767;42.068;24.752;2023-06-10T04:03:06;8.25;;;6.32;;
70342;SDS011;57767;42.068;24.752;2023-06-10T04:04:13;15.38;;;7.35;;
70342;SDS011;57767;42.068;24.752;2023-06-10T04:05:18;11.13;;;7.38;;
70342;SDS011;57767;42.068;24.752;2023-06-10T04:06:23;15.73;;;7.10;;
70342;SDS011;57767;42.068;24.752;2023-06-10T04:07:26;21.40;;;8.68;;
70342;SDS011;57767;42.068;24.752;2023-06-10T04:08:31;23.13;;;8.90;;
70342;SDS011;57767;42.068;24.752;2023-06-10T04:09:35;21.30;;;10.45;;
70342;SDS011;57767;42.068;24.752;2023-06-10T04:10:38;15.40;;;9.60;;
70342;SDS011;57767;42.068;24.752;2023-06-10T04:11:40;24.10;;;9.73;;
70342;SDS011;57767;42.068;24.752;2023-06-10T04:12:42;18.45;;;9.65;;
70342;SDS011;57767;42.068;24.752;2023-06-10T04:13:43;14.27;;;9.10;;
70342;SDS011;57767;42.068;24.752;2023-06-10T04:14:45;13.98;;;9.77;;
70342;SDS011;57767;42.068;24.752;2023-06-10T04:15:47;17.25;;;10.73;;
70342;SDS011;57767;42.068;24.752;2023-06-10T04:16:49;14.23;;;9.75;;
70342;SDS011;57767;42.068;24.752;2023-06-10T04:17:51;14.77;;;8.65;;
70342;SDS011;57767;42.068;24.752;2023-06-10T04:18:54;22.27;;;9.98;;
70342;SDS011;57767;42.068;24.752;2023-06-10T04:19:56;47.88;;;12.05;;
70342;SDS011;57767;42.068;24.752;2023-06-10T04:20:59;38.70;;;11.60;;
70342;SDS011;57767;42.068;24.752;2023-06-10T04:22:01;59.50;;;13.93;;
70342;SDS011;57767;42.068;24.752;2023-06-10T04:23:05;41.75;;;12.20;;
70342;SDS011;57767;42.068;24.752;2023-06-10T04:24:07;42.95;;;11.38;;
70342;SDS011;57767;42.068;24.752;2023-06-10T04:25:09;45.05;;;12.52;;
70342;SDS011;57767;42.068;24.752;2023-06-10T04:26:11;26.90;;;10.68;;
70342;SDS011;57767;42.068;24.752;2023-06-10T04:27:13;28.50;;;10.48;;
70342;SDS011;57767;42.068;24.752;2023-06-10T04:28:15;27.92;;;10.00;;
70342;SDS011;57767;42.068;24.752;2023-06-10T04:29:17;14.60;;;9.10;;
70342;SDS011;57767;42.068;24.752;2023-06-10T04:30:19;13.60;;;9.07;;
70342;SDS011;57767;42.068;24.752;2023-06-10T04:31:21;15.90;;;8.27;;
70342;SDS011;57767;42.068;24.752;2023-06-10T04:32:23;13.32;;;8.50;;
70342;SDS011;57767;42.068;24.752;2023-06-10T04:33:25;12.63;;;8.48;;
70342;SDS011;57767;42.068;24.752;2023-06-10T04:34:27;12.27;;;8.18;;
70342;SDS011;57767;42.068;24.752;2023-06-10T04:35:29;11.85;;;8.38;;
70342;SDS011;57767;42.068;24.752;2023-06-10T04:36:31;12.50;;;8.27;;
70342;SDS011;57767;42.068;24.752;2023-06-10T04:37:32;13.13;;;8.85;;
70342;SDS011;57767;42.068;24.752;2023-06-10T04:38:34;12.88;;;8.75;;
70342;SDS011;57767;42.068;24.752;2023-06-10T04:39:36;17.23;;;8.65;;
70342;SDS011;57767;42.068;24.752;2023-06-10T04:40:39;15.70;;;8.15;;
70342;SDS011;57767;42.068;24.752;2023-06-10T04:41:41;13.55;;;8.30;;
70342;SDS011;57767;42.068;24.752;2023-06-10T04:42:43;12.90;;;8.77;;
70342;SDS011;57767;42.068;24.752;2023-06-10T04:43:45;10.40;;;8.13;;
70342;SDS011;57767;42.068;24.752;2023-06-10T04:44:47;12.77;;;8.65;;
70342;SDS011;57767;42.068;24.752;2023-06-10T04:45:48;10.48;;;9.30;;
70342;SDS011;57767;42.068;24.752;2023-06-10T04:46:50;15.82;;;8.23;;
70342;SDS011;57767;42.068;24.752;2023-06-10T04:47:52;12.93;;;7.72;;
70342;SDS011;57767;42.068;24.752;2023-06-10T04:48:57;10.60;;;6.85;;
70342;SDS011;57767;42.068;24.752;2023-06-10T04:49:59;13.68;;;7.47;;
70342;SDS011;57767;42.068;24.752;2023-06-10T04:51:05;12.88;;;7.85;;
70342;SDS011;57767;42.068;24.752;2023-06-10T04:52:07;10.95;;;7.30;;
70342;SDS011;57767;42.068;24.752;2023-06-10T04:53:09;8.63;;;6.70;;
70342;SDS011;57767;42.068;24.752;2023-06-10T04:54:10;9.90;;;6.78;;
70342;SDS011;57767;42.068;24.752;2023-06-10T04:55:12;10.40;;;6.70;;
70342;SDS011;57767;42.068;24.752;2023-06-10T04:56:14;9.23;;;6.03;;
70342;SDS011;57767;42.068;24.752;2023-06-10T04:57:17;12.20;;;6.47;;
70342;SDS011;57767;42.068;24.752;2023-06-10T04:58:19;9.38;;;6.78;;
70342;SDS011;57767;42.068;24.752;2023-06-10T04:59:21;9.55;;;6.18;;
70342;SDS011;57767;42.068;24.752;2023-06-10T05:00:23;7.95;;;6.30;;
70342;SDS011;57767;42.068;24.752;2023-06-10T05:01:25;9.90;;;6.03;;
70342;SDS011;57767;42.068;24.752;2023-06-10T05:02:27;7.45;;;6.70;;
70342;SDS011;57767;42.068;24.752;2023-06-10T05:03:29;11.63;;;5.95;;
70342;SDS011;57767;42.068;24.752;2023-06-10T05:04:31;6.88;;;6.18;;
70342;SDS011;57767;42.068;24.752;2023-06-10T05:05:33;7.75;;;6.18;;
70342;SDS011;57767;42.068;24.752;2023-06-10T05:06:34;7.60;;;6.20;;
70342;SDS011;57767;42.068;24.752;2023-06-10T05:07:37;11.38;;;6.50;;
70342;SDS011;57767;42.068;24.752;2023-06-10T05:08:39;9.52;;;6.05;;
70342;SDS011;57767;42.068;24.752;2023-06-10T05:09:41;9.75;;;6.25;;
70342;SDS011;57767;42.068;24.752;2023-06-10T05:10:42;12.55;;;6.53;;
70342;SDS011;57767;42.068;24.752;2023-06-10T05:11:44;8.00;;;6.32;;
70342;SDS011;57767;42.068;24.752;2023-06-10T05:12:47;11.20;;;5.90;;
70342;SDS011;57767;42.068;24.752;2023-06-10T05:13:49;8.98;;;5.93;;
70342;SDS011;57767;42.068;24.752;2023-06-10T05:14:51;7.63;;;6.15;;
70342;SDS011;57767;42.068;24.752;2023-06-10T05:15:53;9.77;;;6.00;;
70342;SDS011;57767;42.068;24.752;2023-06-10T05:16:58;9.00;;;5.32;;
70342;SDS011;57767;42.068;24.752;2023-06-10T05:17:59;10.10;;;5.80;;
70342;SDS011;57767;42.068;24.752;2023-06-10T05:19:04;9.35;;;5.80;;
70342;SDS011;57767;42.068;24.752;2023-06-10T05:20:09;9.02;;;6.05;;
70342;SDS011;57767;42.068;24.752;2023-06-10T05:21:11;8.35;;;5.60;;
70342;SDS011;57767;42.068;24.752;2023-06-10T05:22:13;9.50;;;5.85;;
70342;SDS011;57767;42.068;24.752;2023-06-10T05:23:15;10.70;;;6.10;;
70342;SDS011;57767;42.068;24.752;2023-06-10T05:24:17;7.25;;;6.55;;
70342;SDS011;57767;42.068;24.752;2023-06-10T05:25:19;9.63;;;5.82;;
70342;SDS011;57767;42.068;24.752;2023-06-10T05:26:21;8.55;;;6.03;;
70342;SDS011;57767;42.068;24.752;2023-06-10T05:27:23;12.48;;;6.25;;
70342;SDS011;57767;42.068;24.752;2023-06-10T05:28:25;13.95;;;6.40;;
70342;SDS011;57767;42.068;24.752;2023-06-10T05:29:27;9.02;;;6.05;;
70342;SDS011;57767;42.068;24.752;2023-06-10T05:30:29;10.20;;;5.78;;
70342;SDS011;57767;42.068;24.752;2023-06-10T05:31:31;11.52;;;5.90;;
70342;SDS011;57767;42.068;24.752;2023-06-10T05:32:35;9.65;;;6.50;;
70342;SDS011;57767;42.068;24.752;2023-06-10T05:33:37;9.60;;;6.70;;
70342;SDS011;57767;42.068;24.752;2023-06-10T05:34:39;9.88;;;6.15;;
70342;SDS011;57767;42.068;24.752;2023-06-10T05:35:41;12.48;;;6.93;;
70342;SDS011;57767;42.068;24.752;2023-06-10T05:36:43;10.68;;;6.53;;
70342;SDS011;57767;42.068;24.752;2023-06-10T05:37:45;9.38;;;6.57;;
70342;SDS011;57767;42.068;24.752;2023-06-10T05:38:47;8.52;;;6.25;;
70342;SDS011;57767;42.068;24.752;2023-06-10T05:39:49;10.73;;;6.95;;
70342;SDS011;57767;42.068;24.752;2023-06-10T05:40:50;9.70;;;6.13;;
70342;SDS011;57767;42.068;24.752;2023-06-10T05:41:52;7.82;;;6.35;;
70342;SDS011;57767;42.068;24.752;2023-06-10T05:42:57;9.25;;;6.80;;
70342;SDS011;57767;42.068;24.752;2023-06-10T05:43:59;22.23;;;6.78;;
70342;SDS011;57767;42.068;24.752;2023-06-10T05:45:01;15.75;;;7.38;;
70342;SDS011;57767;42.068;24.752;2023-06-10T05:46:03;13.90;;;8.38;;
70342;SDS011;57767;42.068;24.752;2023-06-10T05:47:05;11.63;;;7.53;;
70342;SDS011;57767;42.068;24.752;2023-06-10T05:48:07;14.43;;;9.73;;
70342;SDS011;57767;42.068;24.752;2023-06-10T05:49:09;20.05;;;11.90;;
70342;SDS011;57767;42.068;24.752;2023-06-10T05:50:11;15.60;;;10.27;;
70342;SDS011;57767;42.068;24.752;2023-06-10T05:51:13;12.75;;;7.43;;
70342;SDS011;57767;42.068;24.752;2023-06-10T05:52:16;15.63;;;7.50;;
70342;SDS011;57767;42.068;24.752;2023-06-10T05:53:18;6.82;;;5.57;;
70342;SDS011;57767;42.068;24.752;2023-06-10T05:54:19;8.23;;;5.47;;
70342;SDS011;57767;42.068;24.752;2023-06-10T05:55:21;6.70;;;5.93;;
70342;SDS011;57767;42.068;24.752;2023-06-10T05:56:23;11.77;;;6.28;;
70342;SDS011;57767;42.068;24.752;2023-06-10T05:57:25;10.57;;;5.95;;
70342;SDS011;57767;42.068;24.752;2023-06-10T05:58:27;9.40;;;5.57;;
70342;SDS011;57767;42.068;24.752;2023-06-10T05:59:29;9.80;;;5.40;;
70342;SDS011;57767;42.068;24.752;2023-06-10T06:00:31;8.70;;;5.47;;
70342;SDS011;57767;42.068;24.752;2023-06-10T06:01:32;6.18;;;5.47;;
70342;SDS011;57767;42.068;24.752;2023-06-10T06:02:34;7.00;;;5.85;;
70342;SDS011;57767;42.068;24.752;2023-06-10T06:03:39;8.88;;;5.57;;
70342;SDS011;57767;42.068;24.752;2023-06-10T06:04:41;9.30;;;5.80;;
70342;SDS011;57767;42.068;24.752;2023-06-10T06:05:43;12.73;;;5.78;;
70342;SDS011;57767;42.068;24.752;2023-06-10T06:06:45;7.07;;;5.68;;
70342;SDS011;57767;42.068;24.752;2023-06-10T06:07:47;6.68;;;5.20;;
70342;SDS011;57767;42.068;24.752;2023-06-10T06:08:49;7.45;;;5.15;;
70342;SDS011;57767;42.068;24.752;2023-06-10T06:09:50;9.18;;;5.63;;
70342;SDS011;57767;42.068;24.752;2023-06-10T06:10:52;9.95;;;5.88;;
70342;SDS011;57767;42.068;24.752;2023-06-10T06:11:54;7.40;;;5.60;;
70342;SDS011;57767;42.068;24.752;2023-06-10T06:12:56;11.43;;;5.95;;
70342;SDS011;57767;42.068;24.752;2023-06-10T06:13:58;11.10;;;6.03;;
70342;SDS011;57767;42.068;24.752;2023-06-10T06:15:00;6.13;;;5.40;;
70342;SDS011;57767;42.068;24.752;2023-06-10T06:16:01;8.05;;;6.07;;
70342;SDS011;57767;42.068;24.752;2023-06-10T06:17:03;6.65;;;5.55;;